createdAt,value
2022-08-28T00:03:57.228Z,6.50
2022-08-28T00:09:02.794Z,5.77
2022-08-28T00:14:10.799Z,8.20
2022-08-28T00:19:18.843Z,5.60
2022-08-28T00:24:24.605Z,5.80
2022-08-28T00:29:30.373Z,6.10
2022-08-28T00:34:36.252Z,5.23
2022-08-28T00:39:41.806Z,5.93
2022-08-28T00:44:47.481Z,6.47
2022-08-28T00:49:56.326Z,6.53
2022-08-28T00:55:08.711Z,6.50
2022-08-28T01:00:17.458Z,6.83
2022-08-28T01:05:24.077Z,6.03
2022-08-28T01:10:33.023Z,7.20
2022-08-28T01:15:41.767Z,6.57
2022-08-28T01:20:53.577Z,7.90
2022-08-28T01:26:00.446Z,7.33
2022-08-28T01:31:07.163Z,7.97
2022-08-28T01:36:13.868Z,8.60
2022-08-28T01:41:19.816Z,7.97
2022-08-28T01:46:25.361Z,6.93
2022-08-28T01:51:35.071Z,7.63
2022-08-28T01:56:38.632Z,10.23
2022-08-28T02:01:45.245Z,9.23
2022-08-28T02:06:51.022Z,8.33
2022-08-28T02:11:57.520Z,7.90
2022-08-28T02:17:04.410Z,8.47
2022-08-28T02:22:09.879Z,9.00
2022-08-28T02:27:15.439Z,8.80
2022-08-28T02:32:21.098Z,8.87
2022-08-28T02:37:26.662Z,9.87
2022-08-28T02:42:32.139Z,10.63
2022-08-28T02:47:37.935Z,9.87
2022-08-28T02:52:44.279Z,11.70
2022-08-28T02:57:50.474Z,11.40
2022-08-28T03:02:56.239Z,10.40
2022-08-28T03:08:01.893Z,12.83
2022-08-28T03:13:07.524Z,15.57
2022-08-28T03:18:15.158Z,12.63
2022-08-28T03:23:27.168Z,13.00
2022-08-28T03:28:35.809Z,12.10
2022-08-28T03:33:43.015Z,12.40
2022-08-28T03:38:49.721Z,14.07
2022-08-28T03:43:55.285Z,13.40
2022-08-28T03:49:02.721Z,14.20
2022-08-28T03:54:08.280Z,15.57
2022-08-28T03:59:13.832Z,14.97
2022-08-28T04:04:19.452Z,13.63
2022-08-28T04:09:24.951Z,13.70
2022-08-28T04:14:30.518Z,13.87
2022-08-28T04:19:36.422Z,14.33
2022-08-28T04:24:44.100Z,13.13
2022-08-28T04:29:50.176Z,13.77
2022-08-28T04:34:55.748Z,16.57
2022-08-28T04:40:01.339Z,15.80
2022-08-28T04:45:07.838Z,13.33
2022-08-28T04:50:13.669Z,15.13
2022-08-28T04:55:27.847Z,12.80
2022-08-28T05:00:26.840Z,13.47
2022-08-28T05:05:32.407Z,12.40
2022-08-28T05:10:38.480Z,15.57
2022-08-28T05:15:46.721Z,14.93
2022-08-28T05:20:52.890Z,13.03
2022-08-28T05:25:58.661Z,15.03
2022-08-28T05:31:12.335Z,11.23
2022-08-28T05:36:19.787Z,12.20
2022-08-28T05:41:29.963Z,13.17
2022-08-28T05:46:37.650Z,11.80
2022-08-28T05:51:44.083Z,11.87
2022-08-28T05:56:49.831Z,17.63
2022-08-28T06:01:55.416Z,17.33
2022-08-28T06:07:01.119Z,15.20
2022-08-28T06:12:06.971Z,13.33
2022-08-28T06:17:13.253Z,16.10
2022-08-28T06:22:19.153Z,14.57
2022-08-28T06:27:24.794Z,15.40
2022-08-28T06:32:30.457Z,14.03
2022-08-28T06:37:36.079Z,13.77
2022-08-28T06:42:41.595Z,14.40
2022-08-28T06:47:49.353Z,14.70
2022-08-28T06:52:57.119Z,13.80
2022-08-28T06:58:03.044Z,13.57
2022-08-28T07:03:08.618Z,15.63
2022-08-28T07:08:14.417Z,15.50
2022-08-28T07:13:20.706Z,16.57
2022-08-28T07:18:26.368Z,14.90
2022-08-28T07:23:34.364Z,15.13
2022-08-28T07:28:40.478Z,13.90
2022-08-28T07:33:46.343Z,13.60
2022-08-28T07:38:54.063Z,13.23
2022-08-28T07:44:18.668Z,13.07
2022-08-28T07:49:25.695Z,15.20
2022-08-28T07:54:31.292Z,16.90
2022-08-28T07:59:38.236Z,16.30
2022-08-28T08:04:45.033Z,13.47
2022-08-28T08:09:50.613Z,13.33
2022-08-28T08:14:56.475Z,13.40
2022-08-28T08:20:02.102Z,12.93
2022-08-28T08:25:08.513Z,12.13
2022-08-28T08:30:14.284Z,11.63
2022-08-28T08:35:19.966Z,12.53
2022-08-28T08:40:25.595Z,12.73
2022-08-28T08:45:32.862Z,13.27
2022-08-28T08:50:38.981Z,12.00
2022-08-28T08:55:53.919Z,13.77
2022-08-28T09:01:36.281Z,12.03
2022-08-28T09:07:00.403Z,11.43
2022-08-28T09:12:09.502Z,12.97
2022-08-28T09:17:18.154Z,12.00
2022-08-28T09:22:23.972Z,11.40
2022-08-28T09:27:33.423Z,13.00
2022-08-28T09:32:44.361Z,11.37
2022-08-28T09:37:50.145Z,11.17
2022-08-28T09:43:22.375Z,11.73
2022-08-28T09:48:40.043Z,10.77
2022-08-28T09:53:57.800Z,9.70
2022-08-28T09:59:12.556Z,10.03
2022-08-28T10:04:44.664Z,10.07
2022-08-28T10:10:06.456Z,11.80
2022-08-28T10:15:30.859Z,8.50
2022-08-28T10:20:51.968Z,10.20
2022-08-28T10:26:18.789Z,10.00
2022-08-28T10:31:36.536Z,9.10
2022-08-28T10:36:45.482Z,8.97
2022-08-28T10:41:57.535Z,7.67
2022-08-28T10:47:05.425Z,9.07
2022-08-28T10:52:19.890Z,7.23
2022-08-28T10:57:29.556Z,9.40
2022-08-28T11:02:36.913Z,9.90
2022-08-28T11:07:45.596Z,7.53
2022-08-28T11:12:53.546Z,6.90
2022-08-28T11:18:18.023Z,9.40
2022-08-28T11:23:29.419Z,8.10
2022-08-28T11:28:44.812Z,6.13
2022-08-28T11:33:53.074Z,6.33
2022-08-28T11:39:01.877Z,6.37
2022-08-28T11:44:13.600Z,8.57
2022-08-28T11:49:36.973Z,5.40
2022-08-28T11:55:17.194Z,5.63
2022-08-28T12:00:31.526Z,5.27
2022-08-28T12:05:44.313Z,5.43
2022-08-28T12:10:55.753Z,4.60
2022-08-28T12:16:07.338Z,3.90
2022-08-28T12:21:21.941Z,4.07
2022-08-28T12:26:35.294Z,3.40
2022-08-28T12:32:04.298Z,3.83
2022-08-28T12:37:28.095Z,4.53
2022-08-28T12:42:36.657Z,6.70
2022-08-28T12:47:44.857Z,4.20
2022-08-28T12:52:53.057Z,4.60
2022-08-28T12:57:58.955Z,4.07
2022-08-28T13:03:06.621Z,4.00
2022-08-28T13:08:13.633Z,3.77
2022-08-28T13:13:40.231Z,4.23
2022-08-28T13:18:55.430Z,3.73
2022-08-28T13:24:01.564Z,5.67
2022-08-28T13:29:10.326Z,4.47
2022-08-28T13:34:27.982Z,3.77
2022-08-28T13:39:35.341Z,5.27
2022-08-28T13:44:49.471Z,3.60
2022-08-28T13:49:55.023Z,3.60
2022-08-28T13:55:01.088Z,3.23
2022-08-28T14:00:07.961Z,3.67
2022-08-28T14:05:13.824Z,4.47
2022-08-28T14:10:19.534Z,3.20
2022-08-28T14:15:25.202Z,3.87
2022-08-28T14:20:31.172Z,6.00
2022-08-28T14:25:39.304Z,4.30
2022-08-28T14:30:47.330Z,4.13
2022-08-28T14:35:53.089Z,3.87
2022-08-28T14:40:58.791Z,4.70
2022-08-28T14:46:08.349Z,4.07
2022-08-28T14:51:11.935Z,3.57
2022-08-28T14:56:17.495Z,4.47
2022-08-28T15:01:39.757Z,3.83
2022-08-28T15:06:37.017Z,6.40
2022-08-28T15:11:43.818Z,3.97
2022-08-28T15:16:50.515Z,4.07
2022-08-28T15:21:57.470Z,4.17
2022-08-28T15:27:03.665Z,4.30
2022-08-28T15:32:09.150Z,4.30
2022-08-28T15:37:14.821Z,4.93
2022-08-28T15:42:20.375Z,4.50
2022-08-28T15:47:26.349Z,4.80
2022-08-28T15:52:32.430Z,4.87
2022-08-28T15:57:38.556Z,3.93
2022-08-28T16:02:46.949Z,3.67
2022-08-28T16:07:52.855Z,4.23
2022-08-28T16:12:58.683Z,4.40
2022-08-28T16:18:05.962Z,3.90
2022-08-28T16:23:13.525Z,5.53
2022-08-28T16:28:19.475Z,4.70
2022-08-28T16:33:27.130Z,5.57
2022-08-28T16:38:32.749Z,7.37
2022-08-28T16:43:38.713Z,5.23
2022-08-28T16:48:45.198Z,5.00
2022-08-28T16:53:50.773Z,3.03
2022-08-28T16:58:58.588Z,3.70
2022-08-28T17:04:05.510Z,5.13
2022-08-28T17:09:11.564Z,2.93
2022-08-28T17:14:18.459Z,4.03
2022-08-28T17:19:24.947Z,4.13
2022-08-28T17:24:31.227Z,4.47
2022-08-28T17:29:39.246Z,2.50
2022-08-28T17:34:44.924Z,5.30
2022-08-28T17:39:50.586Z,5.13
2022-08-28T17:44:56.151Z,7.23
2022-08-28T17:50:02.804Z,5.60
2022-08-28T17:55:10.042Z,5.17
2022-08-28T18:00:17.163Z,5.27
2022-08-28T18:05:23.226Z,5.10
2022-08-28T18:10:31.448Z,6.20
2022-08-28T18:15:37.391Z,5.67
2022-08-28T18:20:44.107Z,5.83
2022-08-28T18:25:51.306Z,5.07
2022-08-28T18:30:57.032Z,7.13
2022-08-28T18:36:02.778Z,6.77
2022-08-28T18:41:09.017Z,6.43
2022-08-28T18:46:14.737Z,4.97
2022-08-28T18:51:24.569Z,4.27
2022-08-28T18:56:32.526Z,5.40
2022-08-28T19:01:39.796Z,5.47
2022-08-28T19:06:46.394Z,6.07
2022-08-28T19:11:52.551Z,5.67
2022-08-28T19:16:58.522Z,4.87
2022-08-28T19:22:04.091Z,6.10
2022-08-28T19:27:10.745Z,8.37
2022-08-28T19:32:16.243Z,5.20
2022-08-28T19:37:21.807Z,7.37
2022-08-28T19:42:28.574Z,5.43
2022-08-28T19:47:35.653Z,5.43
2022-08-28T19:52:43.113Z,7.40
2022-08-28T19:57:49.409Z,8.03
2022-08-28T20:02:58.058Z,5.73
2022-08-28T20:08:04.284Z,6.87
2022-08-28T20:13:10.061Z,4.43
2022-08-28T20:18:16.359Z,7.93
2022-08-28T20:23:22.117Z,6.73
2022-08-28T20:28:27.563Z,6.80
2022-08-28T20:33:33.437Z,5.77
2022-08-28T20:38:39.902Z,5.40
2022-08-28T20:43:46.751Z,5.30
2022-08-28T20:48:52.200Z,7.37
2022-08-28T20:53:57.769Z,6.37
2022-08-28T20:59:03.246Z,5.13
2022-08-28T21:04:09.196Z,6.67
2022-08-28T21:09:15.857Z,3.47
2022-08-28T21:14:21.563Z,6.57
2022-08-28T21:19:29.247Z,5.93
2022-08-28T21:24:34.453Z,5.77
2022-08-28T21:29:39.997Z,6.73
2022-08-28T21:34:45.561Z,4.63
2022-08-28T21:39:51.130Z,4.37
2022-08-28T21:44:56.734Z,7.63
2022-08-28T21:50:02.363Z,8.03
2022-08-28T21:55:11.550Z,8.27
2022-08-28T22:00:22.970Z,8.63
2022-08-28T22:05:28.892Z,9.83
2022-08-28T22:10:38.631Z,6.70
2022-08-28T22:15:44.724Z,3.03
2022-08-28T22:21:08.614Z,4.53
2022-08-28T22:26:17.589Z,5.23
2022-08-28T22:31:23.803Z,5.23
2022-08-28T22:36:29.518Z,6.83
2022-08-28T22:41:36.826Z,4.83
2022-08-28T22:46:42.290Z,7.93
2022-08-28T22:51:48.262Z,7.80
2022-08-28T22:56:53.725Z,4.73
2022-08-28T23:01:59.907Z,6.57
2022-08-28T23:07:06.280Z,4.70
2022-08-28T23:12:11.754Z,4.77
2022-08-28T23:17:18.723Z,8.27
2022-08-28T23:22:24.811Z,3.30
2022-08-28T23:27:38.216Z,4.93
2022-08-28T23:32:38.404Z,5.17
2022-08-28T23:37:48.916Z,4.63
2022-08-28T23:42:54.555Z,6.17
2022-08-28T23:48:00.930Z,5.73
2022-08-28T23:53:06.598Z,5.57
2022-08-28T23:58:13.756Z,10.53
